sensor_id;sensor_type;location;lat;lon;timestamp;temperature;humidity
71188;DHT22;58893;53.130;8.158;2022-12-18T00:01:52;0.60;70.00
71188;DHT22;58893;53.130;8.158;2022-12-18T00:04:23;0.60;70.00
71188;DHT22;58893;53.130;8.158;2022-12-18T00:06:49;0.60;69.90
71188;DHT22;58893;53.130;8.158;2022-12-18T00:09:15;0.60;69.90
71188;DHT22;58893;53.130;8.158;2022-12-18T00:11:41;0.60;69.90
71188;DHT22;58893;53.130;8.158;2022-12-18T00:14:06;0.60;69.90
71188;DHT22;58893;53.130;8.158;2022-12-18T00:16:32;0.60;69.80
71188;DHT22;58893;53.130;8.158;2022-12-18T00:19:01;0.60;69.70
71188;DHT22;58893;53.130;8.158;2022-12-18T00:21:28;0.60;69.70
71188;DHT22;58893;53.130;8.158;2022-12-18T00:23:54;0.50;69.60
71188;DHT22;58893;53.130;8.158;2022-12-18T00:26:22;0.50;69.60
71188;DHT22;58893;53.130;8.158;2022-12-18T00:28:48;0.50;69.50
71188;DHT22;58893;53.130;8.158;2022-12-18T00:31:17;0.50;69.50
71188;DHT22;58893;53.130;8.158;2022-12-18T00:33:43;0.50;69.50
71188;DHT22;58893;53.130;8.158;2022-12-18T00:36:14;0.50;69.50
71188;DHT22;58893;53.130;8.158;2022-12-18T00:38:41;0.50;69.50
71188;DHT22;58893;53.130;8.158;2022-12-18T00:41:08;0.50;69.40
71188;DHT22;58893;53.130;8.158;2022-12-18T00:43:34;0.50;69.20
71188;DHT22;58893;53.130;8.158;2022-12-18T00:46:00;0.50;69.10
71188;DHT22;58893;53.130;8.158;2022-12-18T00:48:25;0.50;68.90
71188;DHT22;58893;53.130;8.158;2022-12-18T00:50:51;0.50;69.10
71188;DHT22;58893;53.130;8.158;2022-12-18T00:53:17;0.50;68.60
71188;DHT22;58893;53.130;8.158;2022-12-18T00:55:43;0.40;68.40
71188;DHT22;58893;53.130;8.158;2022-12-18T00:58:11;0.40;68.20
71188;DHT22;58893;53.130;8.158;2022-12-18T01:00:36;0.40;68.00
71188;DHT22;58893;53.130;8.158;2022-12-18T01:03:03;0.40;67.80
71188;DHT22;58893;53.130;8.158;2022-12-18T01:05:29;0.40;67.50
71188;DHT22;58893;53.130;8.158;2022-12-18T01:07:55;0.30;67.30
71188;DHT22;58893;53.130;8.158;2022-12-18T01:10:22;0.30;67.10
71188;DHT22;58893;53.130;8.158;2022-12-18T01:12:48;0.30;66.90
71188;DHT22;58893;53.130;8.158;2022-12-18T01:15:14;0.20;66.30
71188;DHT22;58893;53.130;8.158;2022-12-18T01:17:40;0.20;66.10
71188;DHT22;58893;53.130;8.158;2022-12-18T01:20:07;0.10;66.00
71188;DHT22;58893;53.130;8.158;2022-12-18T01:22:34;0.10;65.70
71188;DHT22;58893;53.130;8.158;2022-12-18T01:25:00;0.10;65.50
71188;DHT22;58893;53.130;8.158;2022-12-18T01:27:26;0.00;65.20
71188;DHT22;58893;53.130;8.158;2022-12-18T01:29:52;0.00;65.00
71188;DHT22;58893;53.130;8.158;2022-12-18T01:32:17;0.00;64.80
71188;DHT22;58893;53.130;8.158;2022-12-18T01:34:43;-0.10;64.60
71188;DHT22;58893;53.130;8.158;2022-12-18T01:37:09;-0.10;64.30
71188;DHT22;58893;53.130;8.158;2022-12-18T01:39:34;-0.20;64.80
71188;DHT22;58893;53.130;8.158;2022-12-18T01:42:02;-0.20;64.00
71188;DHT22;58893;53.130;8.158;2022-12-18T01:44:50;-0.20;63.80
71188;DHT22;58893;53.130;8.158;2022-12-18T01:49:50;-0.30;63.30
71188;DHT22;58893;53.130;8.158;2022-12-18T01:52:18;-0.40;63.30
71188;DHT22;58893;53.130;8.158;2022-12-18T01:54:45;-0.40;63.40
71188;DHT22;58893;53.130;8.158;2022-12-18T01:57:11;-0.40;63.20
71188;DHT22;58893;53.130;8.158;2022-12-18T01:59:37;-0.50;63.10
71188;DHT22;58893;53.130;8.158;2022-12-18T02:02:04;-0.50;63.00
71188;DHT22;58893;53.130;8.158;2022-12-18T02:04:30;-0.50;63.00
71188;DHT22;58893;53.130;8.158;2022-12-18T02:09:50;-0.60;62.70
71188;DHT22;58893;53.130;8.158;2022-12-18T02:12:19;-0.60;62.50
71188;DHT22;58893;53.130;8.158;2022-12-18T02:15:06;-0.60;62.40
71188;DHT22;58893;53.130;8.158;2022-12-18T02:17:48;-0.60;62.40
71188;DHT22;58893;53.130;8.158;2022-12-18T02:20:34;-0.70;62.20
71188;DHT22;58893;53.130;8.158;2022-12-18T02:28:29;-0.80;61.70
71188;DHT22;58893;53.130;8.158;2022-12-18T02:30:58;-0.80;61.50
71188;DHT22;58893;53.130;8.158;2022-12-18T02:33:27;-0.80;61.70
71188;DHT22;58893;53.130;8.158;2022-12-18T02:35:54;-0.90;61.50
71188;DHT22;58893;53.130;8.158;2022-12-18T02:38:20;-0.90;61.60
71188;DHT22;58893;53.130;8.158;2022-12-18T02:40:48;-0.90;61.60
71188;DHT22;58893;53.130;8.158;2022-12-18T02:43:15;-0.90;61.50
71188;DHT22;58893;53.130;8.158;2022-12-18T02:45:58;-0.90;61.20
71188;DHT22;58893;53.130;8.158;2022-12-18T02:48:33;-1.00;61.00
71188;DHT22;58893;53.130;8.158;2022-12-18T02:53:49;-1.00;61.10
71188;DHT22;58893;53.130;8.158;2022-12-18T02:56:21;-1.10;61.20
71188;DHT22;58893;53.130;8.158;2022-12-18T02:58:59;-1.10;61.10
71188;DHT22;58893;53.130;8.158;2022-12-18T03:01:33;-1.10;61.00
71188;DHT22;58893;53.130;8.158;2022-12-18T03:04:12;-1.10;60.80
71188;DHT22;58893;53.130;8.158;2022-12-18T03:06:42;-1.10;60.60
71188;DHT22;58893;53.130;8.158;2022-12-18T03:09:21;-1.10;60.50
71188;DHT22;58893;53.130;8.158;2022-12-18T03:11:54;-1.20;60.50
71188;DHT22;58893;53.130;8.158;2022-12-18T03:14:40;-1.20;60.50
71188;DHT22;58893;53.130;8.158;2022-12-18T03:17:10;-1.20;60.50
71188;DHT22;58893;53.130;8.158;2022-12-18T03:19:38;-1.20;60.60
71188;DHT22;58893;53.130;8.158;2022-12-18T03:22:06;-1.30;60.50
71188;DHT22;58893;53.130;8.158;2022-12-18T03:24:33;-1.30;60.60
71188;DHT22;58893;53.130;8.158;2022-12-18T03:27:06;-1.30;60.70
71188;DHT22;58893;53.130;8.158;2022-12-18T03:29:38;-1.30;60.60
71188;DHT22;58893;53.130;8.158;2022-12-18T03:32:41;-1.40;60.20
71188;DHT22;58893;53.130;8.158;2022-12-18T03:35:10;-1.40;60.00
71188;DHT22;58893;53.130;8.158;2022-12-18T03:37:37;-1.40;60.00
71188;DHT22;58893;53.130;8.158;2022-12-18T03:40:04;-1.40;60.00
71188;DHT22;58893;53.130;8.158;2022-12-18T03:42:51;-1.50;60.00
71188;DHT22;58893;53.130;8.158;2022-12-18T03:45:28;-1.50;60.00
71188;DHT22;58893;53.130;8.158;2022-12-18T03:48:02;-1.50;60.20
71188;DHT22;58893;53.130;8.158;2022-12-18T03:53:09;-1.60;60.20
71188;DHT22;58893;53.130;8.158;2022-12-18T03:55:37;-1.50;60.20
71188;DHT22;58893;53.130;8.158;2022-12-18T03:58:04;-1.60;60.20
71188;DHT22;58893;53.130;8.158;2022-12-18T04:00:32;-1.60;60.30
71188;DHT22;58893;53.130;8.158;2022-12-18T04:03:00;-1.60;60.30
71188;DHT22;58893;53.130;8.158;2022-12-18T04:05:28;-1.60;60.10
71188;DHT22;58893;53.130;8.158;2022-12-18T04:07:55;-1.60;60.20
71188;DHT22;58893;53.130;8.158;2022-12-18T04:10:22;-1.70;60.30
71188;DHT22;58893;53.130;8.158;2022-12-18T04:12:47;-1.60;60.20
71188;DHT22;58893;53.130;8.158;2022-12-18T04:15:13;-1.70;59.90
71188;DHT22;58893;53.130;8.158;2022-12-18T04:17:46;-1.70;59.80
71188;DHT22;58893;53.130;8.158;2022-12-18T04:20:13;-1.70;59.70
71188;DHT22;58893;53.130;8.158;2022-12-18T04:22:38;-1.70;59.80
71188;DHT22;58893;53.130;8.158;2022-12-18T04:25:04;-1.70;59.80
71188;DHT22;58893;53.130;8.158;2022-12-18T04:27:30;-1.80;60.20
71188;DHT22;58893;53.130;8.158;2022-12-18T04:29:56;-1.80;59.80
71188;DHT22;58893;53.130;8.158;2022-12-18T04:32:21;-1.80;59.70
71188;DHT22;58893;53.130;8.158;2022-12-18T04:34:47;-1.80;59.80
71188;DHT22;58893;53.130;8.158;2022-12-18T04:37:13;-1.80;59.90
71188;DHT22;58893;53.130;8.158;2022-12-18T04:39:38;-1.80;60.00
71188;DHT22;58893;53.130;8.158;2022-12-18T04:42:04;-1.80;59.90
71188;DHT22;58893;53.130;8.158;2022-12-18T04:44:30;-1.80;59.90
71188;DHT22;58893;53.130;8.158;2022-12-18T04:46:55;-1.90;59.80
71188;DHT22;58893;53.130;8.158;2022-12-18T04:49:21;-1.90;59.70
71188;DHT22;58893;53.130;8.158;2022-12-18T04:51:47;-1.90;59.80
71188;DHT22;58893;53.130;8.158;2022-12-18T04:54:12;-1.90;59.90
71188;DHT22;58893;53.130;8.158;2022-12-18T04:56:38;-1.90;59.90
71188;DHT22;58893;53.130;8.158;2022-12-18T04:59:04;-1.90;59.90
71188;DHT22;58893;53.130;8.158;2022-12-18T05:01:30;-1.90;59.80
71188;DHT22;58893;53.130;8.158;2022-12-18T05:03:55;-1.90;59.80
71188;DHT22;58893;53.130;8.158;2022-12-18T05:06:21;-1.90;59.70
71188;DHT22;58893;53.130;8.158;2022-12-18T05:08:47;-1.90;59.70
71188;DHT22;58893;53.130;8.158;2022-12-18T05:11:14;-1.90;59.60
71188;DHT22;58893;53.130;8.158;2022-12-18T05:13:41;-1.90;59.50
71188;DHT22;58893;53.130;8.158;2022-12-18T05:16:07;-1.90;59.50
71188;DHT22;58893;53.130;8.158;2022-12-18T05:18:33;-1.90;59.40
71188;DHT22;58893;53.130;8.158;2022-12-18T05:20:58;-1.90;59.20
71188;DHT22;58893;53.130;8.158;2022-12-18T05:23:24;-2.00;59.10
71188;DHT22;58893;53.130;8.158;2022-12-18T05:25:59;-2.00;59.00
71188;DHT22;58893;53.130;8.158;2022-12-18T05:28:26;-2.00;59.10
71188;DHT22;58893;53.130;8.158;2022-12-18T05:30:54;-2.00;59.30
71188;DHT22;58893;53.130;8.158;2022-12-18T05:33:21;-2.00;59.40
71188;DHT22;58893;53.130;8.158;2022-12-18T05:35:51;-2.00;59.40
71188;DHT22;58893;53.130;8.158;2022-12-18T05:38:18;-2.00;59.30
71188;DHT22;58893;53.130;8.158;2022-12-18T05:40:43;-2.00;59.10
71188;DHT22;58893;53.130;8.158;2022-12-18T05:43:10;-2.00;59.00
71188;DHT22;58893;53.130;8.158;2022-12-18T05:45:42;-2.00;59.00
71188;DHT22;58893;53.130;8.158;2022-12-18T05:48:08;-2.10;59.10
71188;DHT22;58893;53.130;8.158;2022-12-18T05:50:38;-2.10;59.20
71188;DHT22;58893;53.130;8.158;2022-12-18T05:53:05;-2.10;59.20
71188;DHT22;58893;53.130;8.158;2022-12-18T05:55:34;-2.10;59.10
71188;DHT22;58893;53.130;8.158;2022-12-18T05:58:00;-2.10;58.90
71188;DHT22;58893;53.130;8.158;2022-12-18T06:00:26;-2.10;58.60
71188;DHT22;58893;53.130;8.158;2022-12-18T06:02:52;-2.10;58.30
71188;DHT22;58893;53.130;8.158;2022-12-18T06:05:18;-2.10;58.30
71188;DHT22;58893;53.130;8.158;2022-12-18T06:07:43;-2.20;58.30
71188;DHT22;58893;53.130;8.158;2022-12-18T06:10:09;-2.20;58.40
71188;DHT22;58893;53.130;8.158;2022-12-18T06:12:35;-2.20;58.50
71188;DHT22;58893;53.130;8.158;2022-12-18T06:15:01;-2.20;58.60
71188;DHT22;58893;53.130;8.158;2022-12-18T06:17:30;-2.20;58.80
71188;DHT22;58893;53.130;8.158;2022-12-18T06:19:56;-2.20;58.90
71188;DHT22;58893;53.130;8.158;2022-12-18T06:22:22;-2.20;58.80
71188;DHT22;58893;53.130;8.158;2022-12-18T06:24:48;-2.20;58.70
71188;DHT22;58893;53.130;8.158;2022-12-18T06:27:14;-2.20;58.70
71188;DHT22;58893;53.130;8.158;2022-12-18T06:29:39;-2.20;58.50
71188;DHT22;58893;53.130;8.158;2022-12-18T06:32:05;-2.20;58.40
71188;DHT22;58893;53.130;8.158;2022-12-18T06:34:31;-2.20;58.60
71188;DHT22;58893;53.130;8.158;2022-12-18T06:36:56;-2.20;58.70
71188;DHT22;58893;53.130;8.158;2022-12-18T06:39:22;-2.20;58.70
71188;DHT22;58893;53.130;8.158;2022-12-18T06:41:47;-2.30;58.60
71188;DHT22;58893;53.130;8.158;2022-12-18T06:44:13;-2.30;58.40
71188;DHT22;58893;53.130;8.158;2022-12-18T06:46:39;-2.30;58.30
71188;DHT22;58893;53.130;8.158;2022-12-18T06:49:04;-2.30;58.40
71188;DHT22;58893;53.130;8.158;2022-12-18T06:51:30;-2.30;58.60
71188;DHT22;58893;53.130;8.158;2022-12-18T06:53:55;-2.30;58.90
71188;DHT22;58893;53.130;8.158;2022-12-18T06:56:21;-2.30;59.00
71188;DHT22;58893;53.130;8.158;2022-12-18T06:58:47;-2.30;59.00
71188;DHT22;58893;53.130;8.158;2022-12-18T07:01:13;-2.30;58.90
71188;DHT22;58893;53.130;8.158;2022-12-18T07:03:40;-2.30;59.00
71188;DHT22;58893;53.130;8.158;2022-12-18T07:06:11;-2.20;59.00
71188;DHT22;58893;53.130;8.158;2022-12-18T07:08:37;-2.20;59.20
71188;DHT22;58893;53.130;8.158;2022-12-18T07:11:04;-2.20;59.40
71188;DHT22;58893;53.130;8.158;2022-12-18T07:13:30;-2.20;59.50
71188;DHT22;58893;53.130;8.158;2022-12-18T07:16:02;-2.20;59.60
71188;DHT22;58893;53.130;8.158;2022-12-18T07:18:28;-2.20;59.60
71188;DHT22;58893;53.130;8.158;2022-12-18T07:20:53;-2.20;59.60
71188;DHT22;58893;53.130;8.158;2022-12-18T07:23:19;-2.20;59.70
71188;DHT22;58893;53.130;8.158;2022-12-18T07:25:44;-2.10;59.80
71188;DHT22;58893;53.130;8.158;2022-12-18T07:28:10;-2.10;59.60
71188;DHT22;58893;53.130;8.158;2022-12-18T07:30:38;-2.00;59.60
71188;DHT22;58893;53.130;8.158;2022-12-18T07:33:04;-2.00;59.50
71188;DHT22;58893;53.130;8.158;2022-12-18T07:35:29;-1.90;59.50
71188;DHT22;58893;53.130;8.158;2022-12-18T07:37:55;-2.00;59.30
71188;DHT22;58893;53.130;8.158;2022-12-18T07:40:20;-2.00;59.30
71188;DHT22;58893;53.130;8.158;2022-12-18T07:42:46;-2.00;59.30
71188;DHT22;58893;53.130;8.158;2022-12-18T07:45:12;-2.00;59.30
71188;DHT22;58893;53.130;8.158;2022-12-18T07:47:37;-2.00;59.40
71188;DHT22;58893;53.130;8.158;2022-12-18T07:50:04;-2.00;59.60
71188;DHT22;58893;53.130;8.158;2022-12-18T07:52:30;-2.00;59.70
71188;DHT22;58893;53.130;8.158;2022-12-18T07:54:55;-2.00;59.70
71188;DHT22;58893;53.130;8.158;2022-12-18T07:57:21;-2.00;59.80
71188;DHT22;58893;53.130;8.158;2022-12-18T07:59:46;-2.00;60.50
71188;DHT22;58893;53.130;8.158;2022-12-18T08:02:12;-2.00;60.00
71188;DHT22;58893;53.130;8.158;2022-12-18T08:04:38;-2.00;60.00
71188;DHT22;58893;53.130;8.158;2022-12-18T08:07:03;-2.00;60.00
71188;DHT22;58893;53.130;8.158;2022-12-18T08:09:29;-1.90;60.20
71188;DHT22;58893;53.130;8.158;2022-12-18T08:11:54;-2.00;60.20
71188;DHT22;58893;53.130;8.158;2022-12-18T08:14:20;-1.90;60.50
71188;DHT22;58893;53.130;8.158;2022-12-18T08:16:46;-1.90;60.80
71188;DHT22;58893;53.130;8.158;2022-12-18T08:19:11;-1.90;61.60
71188;DHT22;58893;53.130;8.158;2022-12-18T08:21:37;-1.90;61.10
71188;DHT22;58893;53.130;8.158;2022-12-18T08:24:03;-1.80;61.20
71188;DHT22;58893;53.130;8.158;2022-12-18T08:26:30;-1.80;61.20
71188;DHT22;58893;53.130;8.158;2022-12-18T08:28:57;-1.80;61.30
71188;DHT22;58893;53.130;8.158;2022-12-18T08:31:24;-1.80;61.30
71188;DHT22;58893;53.130;8.158;2022-12-18T08:33:51;-1.70;61.40
71188;DHT22;58893;53.130;8.158;2022-12-18T08:36:18;-1.70;61.50
71188;DHT22;58893;53.130;8.158;2022-12-18T08:38:44;-1.70;61.60
71188;DHT22;58893;53.130;8.158;2022-12-18T08:41:12;-1.60;62.00
71188;DHT22;58893;53.130;8.158;2022-12-18T08:43:38;-1.40;63.10
71188;DHT22;58893;53.130;8.158;2022-12-18T08:46:24;-1.10;62.60
71188;DHT22;58893;53.130;8.158;2022-12-18T08:48:51;-0.90;61.30
71188;DHT22;58893;53.130;8.158;2022-12-18T08:51:17;-0.80;60.80
71188;DHT22;58893;53.130;8.158;2022-12-18T08:53:43;-0.80;60.40
71188;DHT22;58893;53.130;8.158;2022-12-18T08:56:10;-0.80;60.30
71188;DHT22;58893;53.130;8.158;2022-12-18T08:58:36;-0.80;60.30
71188;DHT22;58893;53.130;8.158;2022-12-18T09:01:06;-0.70;60.40
71188;DHT22;58893;53.130;8.158;2022-12-18T09:03:32;-0.70;60.70
71188;DHT22;58893;53.130;8.158;2022-12-18T09:05:58;-0.70;61.00
71188;DHT22;58893;53.130;8.158;2022-12-18T09:08:25;-0.60;61.30
71188;DHT22;58893;53.130;8.158;2022-12-18T09:10:51;-0.50;61.60
71188;DHT22;58893;53.130;8.158;2022-12-18T09:13:17;-0.30;62.10
71188;DHT22;58893;53.130;8.158;2022-12-18T09:15:45;0.00;62.80
71188;DHT22;58893;53.130;8.158;2022-12-18T09:18:12;0.50;61.90
71188;DHT22;58893;53.130;8.158;2022-12-18T09:20:38;1.00;61.70
71188;DHT22;58893;53.130;8.158;2022-12-18T09:23:05;1.40;59.80
71188;DHT22;58893;53.130;8.158;2022-12-18T09:25:32;1.70;58.10
71188;DHT22;58893;53.130;8.158;2022-12-18T09:27:59;1.70;57.00
71188;DHT22;58893;53.130;8.158;2022-12-18T09:30:25;1.60;56.60
71188;DHT22;58893;53.130;8.158;2022-12-18T09:32:51;1.50;56.60
71188;DHT22;58893;53.130;8.158;2022-12-18T09:35:17;1.40;56.80
71188;DHT22;58893;53.130;8.158;2022-12-18T09:37:42;1.20;56.90
71188;DHT22;58893;53.130;8.158;2022-12-18T09:40:20;1.10;57.20
71188;DHT22;58893;53.130;8.158;2022-12-18T09:42:51;0.90;57.50
71188;DHT22;58893;53.130;8.158;2022-12-18T09:45:17;0.80;57.80
71188;DHT22;58893;53.130;8.158;2022-12-18T09:47:45;0.70;58.10
71188;DHT22;58893;53.130;8.158;2022-12-18T09:50:39;0.70;58.50
71188;DHT22;58893;53.130;8.158;2022-12-18T09:53:12;0.50;58.60
71188;DHT22;58893;53.130;8.158;2022-12-18T09:55:41;0.50;59.00
71188;DHT22;58893;53.130;8.158;2022-12-18T09:58:19;0.50;59.40
71188;DHT22;58893;53.130;8.158;2022-12-18T10:00:46;0.40;59.60
71188;DHT22;58893;53.130;8.158;2022-12-18T10:03:13;0.40;60.00
71188;DHT22;58893;53.130;8.158;2022-12-18T10:08:41;0.40;60.60
71188;DHT22;58893;53.130;8.158;2022-12-18T10:11:53;0.40;60.90
71188;DHT22;58893;53.130;8.158;2022-12-18T10:17:26;0.40;61.60
71188;DHT22;58893;53.130;8.158;2022-12-18T10:28:12;0.40;62.70
71188;DHT22;58893;53.130;8.158;2022-12-18T10:30:39;0.40;62.90
71188;DHT22;58893;53.130;8.158;2022-12-18T10:33:05;0.40;63.10
71188;DHT22;58893;53.130;8.158;2022-12-18T10:35:33;0.40;63.40
71188;DHT22;58893;53.130;8.158;2022-12-18T10:40:59;0.40;63.70
71188;DHT22;58893;53.130;8.158;2022-12-18T10:43:31;0.40;63.90
71188;DHT22;58893;53.130;8.158;2022-12-18T10:46:04;0.40;64.00
71188;DHT22;58893;53.130;8.158;2022-12-18T10:48:32;0.40;64.30
71188;DHT22;58893;53.130;8.158;2022-12-18T10:50:59;0.40;64.50
71188;DHT22;58893;53.130;8.158;2022-12-18T10:53:30;0.50;64.80
71188;DHT22;58893;53.130;8.158;2022-12-18T10:56:02;0.50;65.00
71188;DHT22;58893;53.130;8.158;2022-12-18T10:58:31;0.50;65.00
71188;DHT22;58893;53.130;8.158;2022-12-18T11:06:16;0.60;65.50
71188;DHT22;58893;53.130;8.158;2022-12-18T11:08:44;0.60;65.60
71188;DHT22;58893;53.130;8.158;2022-12-18T11:11:23;0.70;65.70
71188;DHT22;58893;53.130;8.158;2022-12-18T11:14:19;0.70;66.50
71188;DHT22;58893;53.130;8.158;2022-12-18T11:16:47;0.80;66.00
71188;DHT22;58893;53.130;8.158;2022-12-18T11:19:28;0.80;66.00
71188;DHT22;58893;53.130;8.158;2022-12-18T11:21:55;0.80;66.00
71188;DHT22;58893;53.130;8.158;2022-12-18T11:24:24;0.90;66.00
71188;DHT22;58893;53.130;8.158;2022-12-18T11:26:51;0.90;66.10
71188;DHT22;58893;53.130;8.158;2022-12-18T11:29:22;0.90;66.10
71188;DHT22;58893;53.130;8.158;2022-12-18T11:31:48;0.90;66.10
71188;DHT22;58893;53.130;8.158;2022-12-18T11:34:27;0.90;66.10
71188;DHT22;58893;53.130;8.158;2022-12-18T11:36:54;1.00;66.10
71188;DHT22;58893;53.130;8.158;2022-12-18T11:39:30;1.00;66.80
71188;DHT22;58893;53.130;8.158;2022-12-18T11:42:01;1.10;66.20
71188;DHT22;58893;53.130;8.158;2022-12-18T11:44:42;1.10;66.20
71188;DHT22;58893;53.130;8.158;2022-12-18T11:47:21;1.10;66.20
71188;DHT22;58893;53.130;8.158;2022-12-18T11:49:51;1.20;66.20
71188;DHT22;58893;53.130;8.158;2022-12-18T11:52:23;1.10;66.10
71188;DHT22;58893;53.130;8.158;2022-12-18T11:54:58;1.20;66.10
71188;DHT22;58893;53.130;8.158;2022-12-18T11:57:42;1.20;65.80
71188;DHT22;58893;53.130;8.158;2022-12-18T12:05:35;1.20;66.00
71188;DHT22;58893;53.130;8.158;2022-12-18T12:20:02;1.30;66.30
71188;DHT22;58893;53.130;8.158;2022-12-18T12:33:47;1.40;66.40
71188;DHT22;58893;53.130;8.158;2022-12-18T12:36:23;1.40;66.40
71188;DHT22;58893;53.130;8.158;2022-12-18T12:39:01;1.40;66.30
71188;DHT22;58893;53.130;8.158;2022-12-18T12:41:31;1.40;66.30
71188;DHT22;58893;53.130;8.158;2022-12-18T12:44:22;1.40;66.00
71188;DHT22;58893;53.130;8.158;2022-12-18T12:46:50;1.40;66.00
71188;DHT22;58893;53.130;8.158;2022-12-18T12:49:21;1.50;65.90
71188;DHT22;58893;53.130;8.158;2022-12-18T12:54:25;1.50;65.70
71188;DHT22;58893;53.130;8.158;2022-12-18T13:04:56;1.50;65.70
71188;DHT22;58893;53.130;8.158;2022-12-18T13:18:16;1.60;66.00
71188;DHT22;58893;53.130;8.158;2022-12-18T13:34:20;1.60;66.50
71188;DHT22;58893;53.130;8.158;2022-12-18T13:36:47;1.60;66.50
71188;DHT22;58893;53.130;8.158;2022-12-18T13:41:46;1.60;66.70
71188;DHT22;58893;53.130;8.158;2022-12-18T13:46:57;1.60;66.80
71188;DHT22;58893;53.130;8.158;2022-12-18T13:49:38;1.60;66.90
71188;DHT22;58893;53.130;8.158;2022-12-18T13:52:19;1.60;66.90
71188;DHT22;58893;53.130;8.158;2022-12-18T13:54:58;1.60;66.90
71188;DHT22;58893;53.130;8.158;2022-12-18T13:57:34;1.60;66.90
71188;DHT22;58893;53.130;8.158;2022-12-18T14:02:47;1.60;66.90
71188;DHT22;58893;53.130;8.158;2022-12-18T14:05:30;1.60;66.80
71188;DHT22;58893;53.130;8.158;2022-12-18T14:08:01;1.60;66.80
71188;DHT22;58893;53.130;8.158;2022-12-18T14:10:28;1.60;66.60
71188;DHT22;58893;53.130;8.158;2022-12-18T14:12:54;1.50;66.50
71188;DHT22;58893;53.130;8.158;2022-12-18T14:20:21;1.50;66.50
71188;DHT22;58893;53.130;8.158;2022-12-18T14:22:48;1.50;66.50
71188;DHT22;58893;53.130;8.158;2022-12-18T14:25:22;1.50;66.50
71188;DHT22;58893;53.130;8.158;2022-12-18T14:27:53;1.50;66.40
71188;DHT22;58893;53.130;8.158;2022-12-18T14:30:27;1.50;66.40
71188;DHT22;58893;53.130;8.158;2022-12-18T14:33:14;1.50;66.30
71188;DHT22;58893;53.130;8.158;2022-12-18T14:35:43;1.50;66.40
71188;DHT22;58893;53.130;8.158;2022-12-18T14:38:26;1.50;66.30
71188;DHT22;58893;53.130;8.158;2022-12-18T14:40:54;1.50;66.40
71188;DHT22;58893;53.130;8.158;2022-12-18T14:43:21;1.50;66.30
71188;DHT22;58893;53.130;8.158;2022-12-18T14:45:47;1.50;66.20
71188;DHT22;58893;53.130;8.158;2022-12-18T14:48:20;1.50;66.10
71188;DHT22;58893;53.130;8.158;2022-12-18T14:51:01;1.40;65.90
71188;DHT22;58893;53.130;8.158;2022-12-18T14:56:10;1.40;65.80
71188;DHT22;58893;53.130;8.158;2022-12-18T14:58:51;1.40;65.60
71188;DHT22;58893;53.130;8.158;2022-12-18T15:01:30;1.40;65.60
71188;DHT22;58893;53.130;8.158;2022-12-18T15:03:58;1.40;65.60
71188;DHT22;58893;53.130;8.158;2022-12-18T15:06:44;1.40;65.50
71188;DHT22;58893;53.130;8.158;2022-12-18T15:09:25;1.40;65.50
71188;DHT22;58893;53.130;8.158;2022-12-18T15:11:56;1.40;65.40
71188;DHT22;58893;53.130;8.158;2022-12-18T15:16:54;1.30;65.30
71188;DHT22;58893;53.130;8.158;2022-12-18T15:19:22;1.30;65.30
71188;DHT22;58893;53.130;8.158;2022-12-18T15:21:52;1.30;65.20
71188;DHT22;58893;53.130;8.158;2022-12-18T15:24:23;1.30;65.10
71188;DHT22;58893;53.130;8.158;2022-12-18T15:26:50;1.30;65.10
71188;DHT22;58893;53.130;8.158;2022-12-18T15:29:22;1.30;65.00
71188;DHT22;58893;53.130;8.158;2022-12-18T15:32:05;1.30;64.90
71188;DHT22;58893;53.130;8.158;2022-12-18T15:34:32;1.30;64.70
71188;DHT22;58893;53.130;8.158;2022-12-18T15:36:59;1.30;64.40
71188;DHT22;58893;53.130;8.158;2022-12-18T15:39:25;1.30;64.10
71188;DHT22;58893;53.130;8.158;2022-12-18T15:41:50;1.30;64.00
71188;DHT22;58893;53.130;8.158;2022-12-18T15:44:34;1.30;63.50
71188;DHT22;58893;53.130;8.158;2022-12-18T15:47:00;1.30;63.40
71188;DHT22;58893;53.130;8.158;2022-12-18T15:49:26;1.30;62.90
71188;DHT22;58893;53.130;8.158;2022-12-18T15:51:54;1.30;62.30
71188;DHT22;58893;53.130;8.158;2022-12-18T15:54:22;1.30;62.00
71188;DHT22;58893;53.130;8.158;2022-12-18T15:57:11;1.30;62.00
71188;DHT22;58893;53.130;8.158;2022-12-18T15:59:54;1.30;62.10
71188;DHT22;58893;53.130;8.158;2022-12-18T16:02:21;1.30;61.90
71188;DHT22;58893;53.130;8.158;2022-12-18T16:04:48;1.40;61.80
71188;DHT22;58893;53.130;8.158;2022-12-18T16:07:14;1.40;61.50
71188;DHT22;58893;53.130;8.158;2022-12-18T16:09:40;1.40;61.20
71188;DHT22;58893;53.130;8.158;2022-12-18T16:12:10;1.40;61.10
71188;DHT22;58893;53.130;8.158;2022-12-18T16:14:39;1.50;61.00
71188;DHT22;58893;53.130;8.158;2022-12-18T16:17:08;1.50;60.60
71188;DHT22;58893;53.130;8.158;2022-12-18T16:19:34;1.50;60.60
71188;DHT22;58893;53.130;8.158;2022-12-18T16:22:00;1.60;60.50
71188;DHT22;58893;53.130;8.158;2022-12-18T16:24:31;1.60;60.40
71188;DHT22;58893;53.130;8.158;2022-12-18T16:26:59;1.60;60.10
71188;DHT22;58893;53.130;8.158;2022-12-18T16:29:26;1.60;60.00
71188;DHT22;58893;53.130;8.158;2022-12-18T16:32:02;1.70;60.00
71188;DHT22;58893;53.130;8.158;2022-12-18T16:34:34;1.70;59.80
71188;DHT22;58893;53.130;8.158;2022-12-18T16:37:07;1.70;59.60
71188;DHT22;58893;53.130;8.158;2022-12-18T16:39:34;1.70;59.60
71188;DHT22;58893;53.130;8.158;2022-12-18T16:42:01;1.70;59.60
71188;DHT22;58893;53.130;8.158;2022-12-18T16:44:27;1.70;59.60
71188;DHT22;58893;53.130;8.158;2022-12-18T16:46:52;1.70;59.50
71188;DHT22;58893;53.130;8.158;2022-12-18T16:49:19;1.80;59.60
71188;DHT22;58893;53.130;8.158;2022-12-18T16:51:47;1.80;59.60
71188;DHT22;58893;53.130;8.158;2022-12-18T16:54:13;1.80;59.50
71188;DHT22;58893;53.130;8.158;2022-12-18T16:56:40;1.80;59.60
71188;DHT22;58893;53.130;8.158;2022-12-18T16:59:07;1.80;59.60
71188;DHT22;58893;53.130;8.158;2022-12-18T17:01:34;1.80;59.70
71188;DHT22;58893;53.130;8.158;2022-12-18T17:04:02;1.80;59.70
71188;DHT22;58893;53.130;8.158;2022-12-18T17:06:31;1.80;59.70
71188;DHT22;58893;53.130;8.158;2022-12-18T17:08:58;1.80;59.70
71188;DHT22;58893;53.130;8.158;2022-12-18T17:11:26;1.80;59.60
71188;DHT22;58893;53.130;8.158;2022-12-18T17:13:52;1.80;59.60
71188;DHT22;58893;53.130;8.158;2022-12-18T17:16:18;1.80;59.60
71188;DHT22;58893;53.130;8.158;2022-12-18T17:18:44;1.80;59.60
71188;DHT22;58893;53.130;8.158;2022-12-18T17:21:10;1.80;59.50
71188;DHT22;58893;53.130;8.158;2022-12-18T17:23:36;1.80;59.40
71188;DHT22;58893;53.130;8.158;2022-12-18T17:26:03;1.80;59.30
71188;DHT22;58893;53.130;8.158;2022-12-18T17:28:29;1.90;59.40
71188;DHT22;58893;53.130;8.158;2022-12-18T17:30:55;1.80;59.00
71188;DHT22;58893;53.130;8.158;2022-12-18T17:33:22;1.80;59.00
71188;DHT22;58893;53.130;8.158;2022-12-18T17:35:48;1.80;59.00
71188;DHT22;58893;53.130;8.158;2022-12-18T17:38:14;1.80;58.80
71188;DHT22;58893;53.130;8.158;2022-12-18T17:40:40;1.90;58.80
71188;DHT22;58893;53.130;8.158;2022-12-18T17:43:07;1.90;58.80
71188;DHT22;58893;53.130;8.158;2022-12-18T17:45:39;1.90;58.70
71188;DHT22;58893;53.130;8.158;2022-12-18T17:48:06;1.90;58.60
71188;DHT22;58893;53.130;8.158;2022-12-18T17:50:35;1.90;58.70
71188;DHT22;58893;53.130;8.158;2022-12-18T17:53:01;1.90;58.80